createdAt,value
2019-02-09T00:01:49.185Z,7.70
2019-02-09T00:04:15.757Z,7.70
2019-02-09T00:06:42.089Z,7.61
2019-02-09T00:09:09.452Z,7.69
2019-02-09T00:11:35.818Z,7.62
2019-02-09T00:14:03.161Z,7.70
2019-02-09T00:16:30.135Z,7.67
2019-02-09T00:18:56.593Z,7.78
2019-02-09T00:21:23.027Z,7.75
2019-02-09T00:23:49.422Z,7.71
2019-02-09T00:26:15.879Z,7.74
2019-02-09T00:28:42.381Z,7.75
2019-02-09T00:31:08.978Z,7.85
2019-02-09T00:33:35.936Z,7.73
2019-02-09T00:36:03.256Z,7.81
2019-02-09T00:38:29.882Z,7.83
2019-02-09T00:40:56.447Z,7.86
2019-02-09T00:43:23.424Z,7.84
2019-02-09T00:45:50.112Z,7.84
2019-02-09T00:48:16.753Z,7.87
2019-02-09T00:50:43.630Z,7.90
2019-02-09T00:53:10.234Z,7.92
2019-02-09T00:55:36.824Z,7.88
2019-02-09T00:58:08.196Z,7.85
2019-02-09T01:00:35.013Z,7.89
2019-02-09T01:03:02.011Z,7.93
2019-02-09T01:05:34.923Z,8.00
2019-02-09T01:08:01.559Z,7.96
2019-02-09T01:10:29.756Z,7.84
2019-02-09T01:12:56.392Z,7.78
2019-02-09T01:15:23.072Z,7.75
2019-02-09T01:17:49.487Z,7.93
2019-02-09T01:20:24.464Z,7.93
2019-02-09T01:22:52.131Z,7.91
2019-02-09T01:28:29.924Z,7.79
2019-02-09T01:30:56.561Z,7.81
2019-02-09T01:33:23.094Z,7.88
2019-02-09T01:35:49.535Z,7.82
2019-02-09T01:38:16.011Z,7.90
2019-02-09T01:40:42.481Z,7.88
2019-02-09T01:43:08.922Z,7.84
2019-02-09T01:45:35.556Z,7.87
2019-02-09T01:48:02.329Z,7.89
2019-02-09T01:50:32.243Z,7.84
2019-02-09T01:52:59.110Z,7.92
2019-02-09T01:55:29.222Z,7.84
2019-02-09T01:57:57.011Z,7.83
2019-02-09T02:00:33.714Z,7.85
2019-02-09T02:03:00.510Z,7.86
2019-02-09T02:05:27.404Z,7.86
2019-02-09T02:07:54.389Z,7.87
2019-02-09T02:10:25.930Z,7.88
2019-02-09T02:12:53.057Z,7.85
2019-02-09T02:15:19.652Z,7.78
2019-02-09T02:17:46.260Z,7.85
2019-02-09T02:20:18.459Z,7.86
2019-02-09T02:22:45.060Z,7.87
2019-02-09T02:25:12.427Z,7.81
2019-02-09T02:27:38.846Z,7.75
2019-02-09T02:30:09.012Z,7.86
2019-02-09T02:32:35.515Z,7.88
2019-02-09T02:35:02.454Z,7.87
2019-02-09T02:37:29.169Z,7.77
2019-02-09T02:39:55.836Z,7.78
2019-02-09T02:42:22.570Z,7.67
2019-02-09T02:44:49.284Z,7.57
2019-02-09T02:47:15.736Z,7.54
2019-02-09T02:49:42.215Z,7.55
2019-02-09T02:52:08.608Z,7.49
2019-02-09T02:54:35.224Z,7.54
2019-02-09T02:57:01.898Z,7.52
2019-02-09T02:59:28.618Z,7.42
2019-02-09T03:01:55.775Z,7.37
2019-02-09T03:04:22.235Z,7.44
2019-02-09T03:07:04.293Z,7.44
2019-02-09T03:09:32.480Z,7.39
2019-02-09T03:11:59.953Z,7.47
2019-02-09T03:14:26.297Z,7.44
2019-02-09T03:16:52.714Z,7.38
2019-02-09T03:19:19.944Z,7.50
2019-02-09T03:21:46.346Z,7.60
2019-02-09T03:24:12.922Z,7.61
2019-02-09T03:26:39.416Z,7.56
2019-02-09T03:29:05.815Z,7.62
2019-02-09T03:31:32.625Z,7.52
2019-02-09T03:33:59.357Z,7.55
2019-02-09T03:36:26.378Z,7.59
2019-02-09T03:38:53.295Z,7.59
2019-02-09T03:41:19.883Z,7.57
2019-02-09T03:43:46.400Z,7.65
2019-02-09T03:46:13.598Z,7.57
2019-02-09T03:48:40.077Z,7.47
2019-02-09T03:51:06.584Z,7.37
2019-02-09T03:57:08.825Z,7.27
2019-02-09T03:59:35.109Z,7.18
2019-02-09T04:02:01.625Z,7.15
2019-02-09T04:04:28.234Z,7.08
2019-02-09T04:06:54.798Z,7.13
2019-02-09T04:09:21.385Z,7.08
2019-02-09T04:11:48.069Z,7.15
2019-02-09T04:14:14.709Z,7.07
2019-02-09T04:16:41.373Z,7.02
2019-02-09T04:19:08.012Z,7.02
2019-02-09T04:21:34.625Z,6.91
2019-02-09T04:24:01.125Z,6.93
2019-02-09T04:26:28.191Z,6.88
2019-02-09T04:28:54.640Z,6.81
2019-02-09T04:31:21.309Z,6.80
2019-02-09T04:33:48.130Z,6.74
2019-02-09T04:36:14.488Z,6.76
2019-02-09T04:38:41.097Z,6.78
2019-02-09T04:41:07.618Z,6.82
2019-02-09T04:43:33.985Z,6.83
2019-02-09T04:46:00.514Z,6.83
2019-02-09T04:48:26.952Z,6.93
2019-02-09T04:50:53.472Z,6.85
2019-02-09T04:53:20.021Z,7.00
2019-02-09T04:55:46.457Z,7.04
2019-02-09T04:58:13.059Z,6.99
2019-02-09T05:00:39.522Z,7.05
2019-02-09T05:03:06.130Z,7.07
2019-02-09T05:05:32.771Z,6.94
2019-02-09T05:07:59.524Z,6.99
2019-02-09T05:10:26.029Z,7.02
2019-02-09T05:12:52.461Z,7.08
2019-02-09T05:15:21.082Z,7.07
2019-02-09T05:17:48.347Z,7.08
2019-02-09T05:20:17.234Z,7.17
2019-02-09T05:22:44.095Z,7.15
2019-02-09T05:25:12.396Z,7.13
2019-02-09T05:27:39.236Z,7.22
2019-02-09T05:30:18.135Z,7.09
2019-02-09T05:32:44.855Z,7.12
2019-02-09T05:35:11.290Z,7.23
2019-02-09T05:37:38.205Z,7.19
2019-02-09T05:40:08.702Z,7.11
2019-02-09T05:42:35.474Z,7.14
2019-02-09T05:45:02.409Z,7.16
2019-02-09T05:47:28.956Z,7.16
2019-02-09T05:49:55.540Z,7.08
2019-02-09T05:52:22.303Z,7.17
2019-02-09T05:54:48.832Z,7.09
2019-02-09T05:57:15.268Z,7.12
2019-02-09T05:59:41.812Z,7.19
2019-02-09T06:02:08.313Z,7.24
2019-02-09T06:04:34.986Z,7.25
2019-02-09T06:07:01.667Z,7.30
2019-02-09T06:09:28.333Z,7.32
2019-02-09T06:11:54.961Z,7.28
2019-02-09T06:14:21.958Z,7.24
2019-02-09T06:16:48.991Z,7.30
2019-02-09T06:19:15.706Z,7.34
2019-02-09T06:21:42.729Z,7.27
2019-02-09T06:24:09.615Z,7.25
2019-02-09T06:26:36.300Z,7.35
2019-02-09T06:29:02.827Z,7.26
2019-02-09T06:31:29.629Z,7.25
2019-02-09T06:33:56.312Z,7.30
2019-02-09T06:36:22.850Z,7.39
2019-02-09T06:38:50.448Z,7.35
2019-02-09T06:41:16.985Z,7.40
2019-02-09T06:43:43.304Z,7.42
2019-02-09T06:46:13.201Z,7.41
2019-02-09T06:48:41.575Z,7.42
2019-02-09T06:51:10.640Z,7.44
2019-02-09T06:53:38.505Z,7.38
2019-02-09T06:56:06.172Z,7.40
2019-02-09T06:58:33.072Z,7.44
2019-02-09T07:00:59.915Z,7.40
2019-02-09T07:03:26.892Z,7.44
2019-02-09T07:05:53.320Z,7.44
2019-02-09T07:08:32.983Z,7.45
2019-02-09T07:11:00.876Z,7.43
2019-02-09T07:13:27.898Z,7.39
2019-02-09T07:15:54.597Z,7.45
2019-02-09T07:18:21.317Z,7.62
2019-02-09T07:20:47.912Z,7.54
2019-02-09T07:23:14.796Z,7.48
2019-02-09T07:25:41.496Z,7.65
2019-02-09T07:28:08.047Z,7.64
2019-02-09T07:30:40.235Z,7.56
2019-02-09T07:33:07.482Z,7.62
2019-02-09T07:35:34.172Z,7.53
2019-02-09T07:38:00.758Z,7.55
2019-02-09T07:40:30.365Z,7.73
2019-02-09T07:42:58.828Z,7.65
2019-02-09T07:45:31.506Z,7.69
2019-02-09T07:48:02.376Z,7.71
2019-02-09T07:50:29.597Z,7.69
2019-02-09T07:52:56.422Z,7.70
2019-02-09T07:55:24.370Z,7.68
2019-02-09T07:57:52.888Z,7.82
2019-02-09T08:00:23.973Z,7.79
2019-02-09T08:02:51.815Z,7.82
2019-02-09T08:05:19.829Z,7.82
2019-02-09T08:07:46.936Z,7.84
2019-02-09T08:10:17.343Z,7.99
2019-02-09T08:12:44.580Z,8.01
2019-02-09T08:15:17.563Z,7.97
2019-02-09T08:17:45.003Z,8.18
2019-02-09T08:20:17.606Z,8.04
2019-02-09T08:22:45.036Z,8.22
2019-02-09T08:25:17.248Z,8.30
2019-02-09T08:27:44.800Z,8.24
2019-02-09T08:30:14.986Z,8.26
2019-02-09T08:32:41.560Z,8.43
2019-02-09T08:35:08.887Z,8.34
2019-02-09T08:37:35.769Z,8.43
2019-02-09T08:40:03.597Z,8.52
2019-02-09T08:42:30.055Z,8.58
2019-02-09T08:44:56.585Z,8.46
2019-02-09T08:47:23.452Z,8.50
2019-02-09T08:49:49.970Z,8.38
2019-02-09T08:52:18.540Z,8.52
2019-02-09T08:54:48.429Z,8.46
2019-02-09T08:57:19.714Z,8.48
2019-02-09T08:59:46.563Z,8.47
2019-02-09T09:02:20.184Z,8.39
2019-02-09T09:04:41.651Z,8.45
2019-02-09T09:07:08.232Z,8.50
2019-02-09T09:09:34.635Z,8.45
2019-02-09T09:12:01.191Z,8.41
2019-02-09T09:14:27.719Z,8.46
2019-02-09T09:16:54.116Z,8.58
2019-02-09T09:19:20.824Z,8.76
2019-02-09T09:21:47.432Z,8.83
2019-02-09T09:24:14.165Z,8.93
2019-02-09T09:26:40.779Z,8.98
2019-02-09T09:29:07.429Z,8.85
2019-02-09T09:31:34.336Z,8.85
2019-02-09T09:34:03.530Z,9.00
2019-02-09T09:36:30.402Z,8.92
2019-02-09T09:38:56.895Z,8.95
2019-02-09T09:41:23.475Z,9.01
2019-02-09T09:43:50.723Z,8.81
2019-02-09T09:46:17.783Z,8.96
2019-02-09T09:48:44.581Z,9.04
2019-02-09T09:51:11.353Z,9.11
2019-02-09T09:53:38.277Z,9.09
2019-02-09T09:56:05.144Z,9.19
2019-02-09T09:58:34.887Z,9.22
2019-02-09T10:01:03.580Z,9.24
2019-02-09T10:03:30.283Z,9.27
2019-02-09T10:05:57.292Z,9.50
2019-02-09T10:08:24.611Z,9.47
2019-02-09T10:10:52.086Z,9.41
2019-02-09T10:13:19.100Z,9.40
2019-02-09T10:16:07.909Z,9.20
2019-02-09T10:18:34.272Z,9.17
2019-02-09T10:21:01.068Z,9.40
2019-02-09T10:23:27.606Z,9.46
2019-02-09T10:25:54.088Z,9.45
2019-02-09T10:28:20.534Z,9.50
2019-02-09T10:30:47.035Z,9.53
2019-02-09T10:33:13.474Z,9.66
2019-02-09T10:35:40.132Z,9.51
2019-02-09T10:38:06.712Z,9.71
2019-02-09T10:40:37.859Z,9.75
2019-02-09T10:43:06.857Z,10.04
2019-02-09T10:45:34.428Z,10.06
2019-02-09T10:48:04.012Z,9.98
2019-02-09T10:50:42.599Z,9.89
2019-02-09T10:53:09.606Z,9.84
2019-02-09T10:55:36.300Z,10.27
2019-02-09T10:58:03.958Z,9.96
2019-02-09T11:00:36.986Z,9.97
2019-02-09T11:06:27.086Z,9.97
2019-02-09T11:08:53.550Z,9.79
2019-02-09T11:11:20.433Z,10.16
2019-02-09T11:13:47.933Z,10.58
2019-02-09T11:16:14.771Z,10.52
2019-02-09T11:18:41.439Z,10.63
2019-02-09T11:21:08.148Z,10.50
2019-02-09T11:23:35.121Z,10.46
2019-02-09T11:29:26.119Z,10.53
2019-02-09T11:31:53.057Z,10.53
2019-02-09T11:34:19.975Z,10.83
2019-02-09T11:36:47.034Z,10.81
2019-02-09T11:39:13.652Z,10.66
2019-02-09T11:41:40.453Z,10.42
2019-02-09T11:44:07.166Z,10.57
2019-02-09T11:46:33.891Z,10.59
2019-02-09T11:49:00.535Z,10.71
2019-02-09T11:51:27.286Z,10.52
2019-02-09T11:53:54.017Z,10.34
2019-02-09T11:56:22.934Z,10.25
2019-02-09T11:58:50.588Z,10.23
2019-02-09T12:01:17.128Z,9.85
2019-02-09T12:03:43.333Z,9.49
2019-02-09T12:06:09.944Z,9.34
2019-02-09T12:08:36.829Z,8.62
2019-02-09T12:11:03.741Z,8.44
2019-02-09T12:13:33.065Z,8.13
2019-02-09T12:19:35.749Z,7.81
2019-02-09T12:22:02.819Z,7.92
2019-02-09T12:24:29.260Z,8.13
2019-02-09T12:26:56.346Z,8.39
2019-02-09T12:29:23.135Z,8.89
2019-02-09T12:31:49.833Z,9.36
2019-02-09T12:34:16.413Z,9.32
2019-02-09T12:36:43.203Z,9.17
2019-02-09T12:39:10.047Z,9.20
2019-02-09T12:41:36.649Z,9.20
2019-02-09T12:47:14.665Z,9.55
2019-02-09T12:52:54.723Z,9.56
2019-02-09T12:55:22.254Z,9.74
2019-02-09T12:57:50.162Z,9.68
2019-02-09T13:00:32.311Z,9.63
2019-02-09T13:03:08.235Z,9.64
2019-02-09T13:05:35.159Z,9.62
2019-02-09T13:08:01.699Z,9.56
2019-02-09T13:10:32.963Z,9.71
2019-02-09T13:13:00.025Z,9.63
2019-02-09T13:15:29.134Z,9.71
2019-02-09T13:17:56.145Z,9.66
2019-02-09T13:20:28.550Z,9.70
2019-02-09T13:22:55.884Z,9.79
2019-02-09T13:25:25.475Z,9.71
2019-02-09T13:27:52.630Z,9.85
2019-02-09T13:30:29.736Z,9.59
2019-02-09T13:32:58.661Z,9.71
2019-02-09T13:35:29.744Z,9.64
2019-02-09T13:37:56.408Z,9.62
2019-02-09T13:40:25.485Z,9.79
2019-02-09T13:42:52.725Z,9.67
2019-02-09T13:45:34.603Z,9.63
2019-02-09T13:48:03.931Z,9.64
2019-02-09T13:54:05.079Z,9.75
2019-02-09T13:56:31.762Z,9.64
2019-02-09T13:58:58.709Z,9.67
2019-02-09T14:04:49.197Z,9.67
2019-02-09T14:07:15.489Z,9.67
2019-02-09T14:09:41.871Z,9.66
2019-02-09T14:12:08.370Z,9.66
2019-02-09T14:14:34.934Z,9.67
2019-02-09T14:17:01.707Z,9.56
2019-02-09T14:19:28.557Z,9.57
2019-02-09T14:25:08.848Z,9.67
2019-02-09T14:27:35.351Z,9.79
2019-02-09T14:30:03.877Z,9.72
2019-02-09T14:35:54.634Z,9.74
2019-02-09T14:38:21.345Z,9.77
2019-02-09T14:44:21.968Z,9.89
2019-02-09T14:46:48.654Z,9.63
2019-02-09T14:49:15.277Z,9.71
2019-02-09T14:51:42.338Z,9.75
2019-02-09T14:54:08.814Z,9.67
2019-02-09T14:56:35.483Z,9.71
2019-02-09T14:59:01.839Z,9.65
2019-02-09T15:04:53.146Z,9.60
2019-02-09T15:07:20.106Z,9.65
2019-02-09T15:09:46.789Z,9.49
2019-02-09T15:12:13.493Z,9.54
2019-02-09T15:14:40.625Z,9.53
2019-02-09T15:17:06.973Z,9.48
2019-02-09T15:19:33.557Z,9.57
2019-02-09T15:22:00.062Z,9.63
2019-02-09T15:24:26.474Z,9.45
2019-02-09T15:26:53.066Z,9.50
2019-02-09T15:29:19.563Z,9.40
2019-02-09T15:31:45.884Z,9.50
2019-02-09T15:34:12.603Z,9.49
2019-02-09T15:36:39.151Z,9.41
2019-02-09T15:39:07.344Z,9.53
2019-02-09T15:41:33.918Z,9.47
2019-02-09T15:44:01.069Z,9.54
2019-02-09T15:46:27.367Z,9.56
2019-02-09T15:48:53.964Z,9.61
2019-02-09T15:51:21.420Z,9.52
2019-02-09T15:53:47.927Z,9.53
2019-02-09T15:56:14.329Z,9.60
2019-02-09T16:02:16.214Z,9.41
2019-02-09T16:04:42.738Z,9.39
2019-02-09T16:07:09.470Z,9.34
2019-02-09T16:09:36.008Z,9.29
2019-02-09T16:12:02.517Z,9.17
2019-02-09T16:14:29.285Z,9.21
2019-02-09T16:16:55.909Z,9.18
2019-02-09T16:19:22.549Z,9.08
2019-02-09T16:21:49.078Z,9.10
2019-02-09T16:24:15.506Z,8.92
2019-02-09T16:26:41.898Z,8.78
2019-02-09T16:29:08.451Z,8.58
2019-02-09T16:31:36.070Z,8.49
2019-02-09T16:34:02.903Z,8.51
2019-02-09T16:36:29.304Z,8.46
2019-02-09T16:38:55.997Z,8.45
2019-02-09T16:41:22.632Z,8.60
2019-02-09T16:43:49.287Z,8.46
2019-02-09T16:46:15.790Z,8.48
2019-02-09T16:48:42.318Z,8.37
2019-02-09T16:54:44.167Z,8.44
2019-02-09T16:57:10.844Z,8.44
2019-02-09T16:59:37.606Z,8.52
2019-02-09T17:02:04.193Z,8.42
2019-02-09T17:04:33.217Z,8.31
2019-02-09T17:06:59.138Z,8.33
2019-02-09T17:09:26.306Z,8.27
2019-02-09T17:11:53.379Z,8.21
2019-02-09T17:14:19.999Z,8.05
2019-02-09T17:16:46.914Z,8.05
2019-02-09T17:19:14.968Z,8.08
2019-02-09T17:24:53.760Z,8.14
2019-02-09T17:27:20.475Z,8.08
2019-02-09T17:29:47.272Z,8.02
2019-02-09T17:32:14.352Z,8.00
2019-02-09T17:34:41.219Z,8.14
2019-02-09T17:37:07.660Z,8.03
2019-02-09T17:39:34.162Z,8.02
2019-02-09T17:45:24.919Z,8.01
2019-02-09T17:47:51.379Z,7.97
2019-02-09T17:50:18.285Z,8.02
2019-02-09T17:52:44.825Z,8.00
2019-02-09T17:55:14.469Z,7.99
2019-02-09T17:57:41.051Z,8.17
2019-02-09T18:00:16.774Z,8.14
2019-02-09T18:02:43.027Z,8.16
2019-02-09T18:05:10.090Z,8.19
2019-02-09T18:07:36.798Z,8.22
2019-02-09T18:10:07.064Z,8.20
2019-02-09T18:12:33.718Z,8.20
2019-02-09T18:15:00.495Z,8.23
2019-02-09T18:17:27.034Z,8.22
2019-02-09T18:19:53.462Z,8.20
2019-02-09T18:22:20.285Z,8.30
2019-02-09T18:24:47.096Z,8.34
2019-02-09T18:27:13.736Z,8.53
2019-02-09T18:29:40.267Z,8.79
2019-02-09T18:32:07.173Z,8.74
2019-02-09T18:34:33.444Z,8.87
2019-02-09T18:37:00.305Z,8.92
2019-02-09T18:39:26.926Z,8.94
2019-02-09T18:41:53.760Z,9.00
2019-02-09T18:47:44.278Z,9.04
2019-02-09T18:50:17.681Z,9.02
2019-02-09T18:52:44.648Z,9.04
2019-02-09T18:55:16.304Z,9.01
2019-02-09T18:57:43.978Z,8.91
2019-02-09T19:00:14.379Z,9.08
2019-02-09T19:02:41.007Z,8.75
2019-02-09T19:05:10.039Z,8.38
2019-02-09T19:11:02.044Z,8.32
2019-02-09T19:13:28.787Z,8.26
2019-02-09T19:15:55.351Z,8.11
2019-02-09T19:18:21.862Z,8.00
2019-02-09T19:20:51.736Z,7.94
2019-02-09T19:23:19.320Z,7.86
2019-02-09T19:25:45.778Z,7.62
2019-02-09T19:31:48.125Z,7.64
2019-02-09T19:34:14.919Z,7.73
2019-02-09T19:36:41.294Z,7.76
2019-02-09T19:42:19.816Z,7.63
2019-02-09T19:44:46.967Z,7.67
2019-02-09T19:47:16.780Z,7.75
2019-02-09T19:53:07.645Z,7.81
2019-02-09T19:55:35.477Z,7.76
2019-02-09T19:58:02.163Z,7.74
2019-02-09T20:03:40.035Z,7.78
2019-02-09T20:06:06.515Z,7.89
2019-02-09T20:08:32.761Z,7.92
2019-02-09T20:14:22.951Z,7.87
2019-02-09T20:16:49.940Z,7.77
2019-02-09T20:19:16.614Z,7.90
2019-02-09T20:25:10.655Z,7.84
2019-02-09T20:27:37.539Z,7.87
2019-02-09T20:30:16.526Z,7.84
2019-02-09T20:32:42.870Z,7.85
2019-02-09T20:35:13.488Z,7.79
2019-02-09T20:37:42.007Z,7.74
2019-02-09T20:40:12.480Z,7.88
2019-02-09T20:46:03.172Z,7.65
2019-02-09T20:48:30.290Z,7.79
2019-02-09T20:50:57.119Z,7.63
2019-02-09T20:56:23.396Z,7.78
2019-02-09T20:58:50.019Z,7.78
2019-02-09T21:01:16.654Z,7.91
2019-02-09T21:03:43.244Z,8.20
2019-02-09T21:06:09.732Z,8.00
2019-02-09T21:08:36.296Z,7.91
2019-02-09T21:11:02.904Z,8.04
2019-02-09T21:13:29.361Z,8.16
2019-02-09T21:15:55.857Z,8.08
2019-02-09T21:18:22.223Z,8.07
2019-02-09T21:20:53.060Z,8.13
2019-02-09T21:26:55.049Z,8.01
2019-02-09T21:29:21.964Z,8.07
2019-02-09T21:31:48.500Z,8.06
2019-02-09T21:37:50.617Z,8.05
2019-02-09T21:40:20.292Z,8.20
2019-02-09T21:42:47.181Z,8.05
2019-02-09T21:45:16.156Z,8.13
2019-02-09T21:47:43.997Z,8.26
2019-02-09T21:50:22.341Z,8.09
2019-02-09T21:52:48.972Z,8.06
2019-02-09T21:55:20.936Z,8.14
2019-02-09T21:57:47.917Z,8.16
2019-02-09T22:00:35.250Z,8.17
2019-02-09T22:03:14.562Z,8.29
2019-02-09T22:05:41.190Z,8.16
2019-02-09T22:08:10.619Z,8.20
2019-02-09T22:10:37.732Z,8.30
2019-02-09T22:13:04.368Z,8.29
2019-02-09T22:15:38.252Z,8.36
2019-02-09T22:18:01.790Z,8.35
2019-02-09T22:20:29.716Z,8.37
2019-02-09T22:23:02.101Z,8.32
2019-02-09T22:28:55.680Z,8.41
2019-02-09T22:31:22.423Z,8.47
2019-02-09T22:33:49.779Z,8.47
2019-02-09T22:36:16.283Z,8.41
2019-02-09T22:38:42.766Z,8.37
2019-02-09T22:41:09.770Z,8.37
2019-02-09T22:43:36.199Z,8.42
2019-02-09T22:46:03.384Z,8.42
2019-02-09T22:51:22.149Z,8.37
2019-02-09T22:53:48.870Z,8.43
2019-02-09T22:56:15.774Z,8.39
2019-02-09T22:58:42.995Z,8.37
2019-02-09T23:01:16.103Z,8.41
2019-02-09T23:03:49.528Z,8.35
2019-02-09T23:06:25.878Z,8.36
2019-02-09T23:08:54.601Z,8.35
2019-02-09T23:11:23.330Z,8.27
2019-02-09T23:13:51.885Z,8.35
2019-02-09T23:16:18.510Z,8.32
2019-02-09T23:18:47.785Z,8.34
2019-02-09T23:21:18.358Z,8.39
2019-02-09T23:23:48.407Z,8.27
2019-02-09T23:26:14.757Z,8.33
2019-02-09T23:28:41.396Z,8.14
2019-02-09T23:31:07.995Z,8.15
2019-02-09T23:33:35.879Z,8.26
2019-02-09T23:36:02.355Z,8.13
2019-02-09T23:38:28.851Z,8.15
2019-02-09T23:40:55.360Z,8.13
2019-02-09T23:43:21.720Z,8.05
2019-02-09T23:45:50.955Z,8.04
2019-02-09T23:48:17.839Z,8.06
2019-02-09T23:50:44.495Z,8.08
2019-02-09T23:53:11.242Z,8.11
2019-02-09T23:55:38.455Z,8.19
2019-02-09T23:58:05.905Z,8.20
